EFPO

Pori Airport

Pori, Finland
TAF EFPO 190826Z 1909/1918 29009KT CAVOK
Issued Valid From Valid To
Oct-19 @ 08:26 UTC
(an hour ago)
Oct-19 @ 09:00 UTC
(44 minutes ago)
Oct-19 @ 18:00 UTC
(in 8 hours)
Oct-19 @ 09:00 to Oct-19 @ 18:00
TAF EFPO 190826Z 1909/1918 29009KT CAVOK
Wind Visibility Clouds Conditions
290° at 9 knots 10,000+ meters
  • No significant clouds
TAF EFPO 190826Z 1909/1918 29009KT CAVOK
Issued Oct-19 @ 08:26 UTC
(an hour ago)
Valid From Oct-19 @ 09:00 UTC
(44 minutes ago)
Valid To Oct-19 @ 18:00 UTC
(in 8 hours)
Oct-19 @ 09:00 - Oct-19 @ 18:00
Wind Visibility
290° at 9 knots 10,000+ meters
Clouds
  • No significant clouds
Conditions